Big Sandy Regional (SJS)

 

Airport Diagram
No Airport Diagram Available
Current Weather/Forecast (MVFR Conditions)
METAR KSJS 270235Z AUTO 00000KT 10SM OVC012 13/13 A3020 RMK AO2 T01310129 PNO
TAF KSJS 262325Z 2700/2724 VRB03KT P6SM OVC010 FM270600 00000KT 4SM BR OVC007 FM271000 00000KT 2SM BR OVC007 FM271400 00000KT P6SM OVC015 FM271900 00000KT P6SM BKN025

Airport Information

All Charts
General
Chart Name View
TAKEOFF MINIMUMS
ALTERNATE MINIMUMS
TAKEOFF MINIMUMS
ALTERNATE MINIMUMS

Approaches
Chart Name Download
RNAV (GPS) RWY 03
RNAV (GPS) RWY 21
RNAV (GPS) RWY 03
RNAV (GPS) RWY 21


Airport Statistics
Departures Arrivals Local
All Collected Stats since June 2016: 3 2 0
2020 Stats: 2 1 0
October Stats: 0 0 0

Inbound Traffic (Arrivals) - 0

No inbound traffic.


Outbound Traffic (Departures) - 0

No outbound traffic.


Local Traffic (Pattern) - 0

No local traffic.